Time;durP1;ratioP1;P1;durP2;ratioP2;P2;SDS_P1;SDS_P2;PMS_P1;PMS_P2;Temp;Humidity;BMP_temperature;BMP_pressure;BME280_temperature;BME280_humidity;BME280_pressure;Samples;Min_cycle;Max_cycle;Signal;HPM_P1;HPM_P2
2021/03/12 00:01:26;;;;;;;12.03;4.80;;;;;;;-2.71;61.58;99569.20;1675841;85;21103;-60
2021/03/12 00:03:53;;;;;;;7.85;4.17;;;;;;;-2.69;61.06;99562.44;1675835;85;21288;-60
2021/03/12 00:06:21;;;;;;;8.88;4.72;;;;;;;-2.67;60.72;99565.86;1675714;85;21985;-60
2021/03/12 00:08:48;;;;;;;15.80;4.70;;;;;;;-2.67;60.83;99559.08;1675819;85;21083;-60
2021/03/12 00:11:16;;;;;;;10.10;4.55;;;;;;;-2.65;60.39;99554.02;1675766;85;21523;-60
2021/03/12 00:13:44;;;;;;;7.70;4.28;;;;;;;-2.62;60.10;99552.37;1675825;85;21124;-60
2021/03/12 00:16:11;;;;;;;11.05;4.58;;;;;;;-2.58;60.02;99551.96;1675817;85;21363;-60
2021/03/12 00:18:43;;;;;;;7.72;4.35;;;;;;;-2.56;59.67;99550.29;1675749;85;21221;-60
2021/03/12 00:21:13;;;;;;;8.85;4.28;;;;;;;-2.58;59.41;99550.69;1675899;85;21154;-60
2021/03/12 00:23:40;;;;;;;12.20;5.08;;;;;;;-2.59;59.37;99551.11;1675809;85;21198;-60
2021/03/12 00:26:08;;;;;;;9.15;3.90;;;;;;;-2.57;59.46;99553.67;1675783;85;21224;-60
2021/03/12 00:28:37;;;;;;;10.78;5.00;;;;;;;-2.55;59.67;99552.00;1675825;85;21291;-60
2021/03/12 00:31:07;;;;;;;7.10;4.03;;;;;;;-2.56;59.54;99549.88;1669504;85;21515;-60
2021/03/12 00:33:35;;;;;;;7.15;4.08;;;;;;;-2.58;58.89;99534.99;1675793;85;21107;-61
2021/03/12 00:36:06;;;;;;;9.10;4.65;;;;;;;-2.59;58.54;99538.38;1669482;85;21219;-61
2021/03/12 00:38:33;;;;;;;6.17;4.15;;;;;;;-2.60;58.80;99535.42;1669338;85;21175;-60
2021/03/12 00:41:04;;;;;;;6.00;3.55;;;;;;;-2.58;58.78;99544.32;1669421;85;21395;-60
2021/03/12 00:43:35;;;;;;;8.23;4.45;;;;;;;-2.59;58.67;99545.16;1671978;85;21603;-60
2021/03/12 00:46:08;;;;;;;8.98;3.95;;;;;;;-2.62;58.82;99546.00;1671937;85;21523;-60
2021/03/12 00:48:36;;;;;;;6.12;3.87;;;;;;;-2.63;58.55;99544.70;1671915;85;21103;-60
2021/03/12 00:51:05;;;;;;;16.93;4.25;;;;;;;-2.66;58.67;99539.57;1671949;85;21150;-60
2021/03/12 00:53:35;;;;;;;10.78;4.33;;;;;;;-2.67;58.71;99522.59;1671208;85;21224;-60
2021/03/12 00:56:05;;;;;;;8.98;5.25;;;;;;;-2.68;58.41;99505.18;1671814;85;21602;-60
2021/03/12 00:58:32;;;;;;;11.08;3.98;;;;;;;-2.71;58.76;99494.95;1669446;85;21166;-60
2021/03/12 01:01:01;;;;;;;20.23;5.62;;;;;;;-2.73;58.91;99486.44;1669520;85;21595;-60
2021/03/12 01:03:32;;;;;;;52.98;7.55;;;;;;;-2.75;59.16;99473.25;1671890;85;21174;-60
2021/03/12 01:06:01;;;;;;;18.65;5.28;;;;;;;-2.75;58.95;99462.66;1671785;85;21432;-60
2021/03/12 01:08:30;;;;;;;7.83;4.20;;;;;;;-2.77;58.89;99451.19;1671891;85;21225;-60
2021/03/12 01:10:58;;;;;;;65.70;7.92;;;;;;;-2.75;59.03;99451.63;1671845;85;21541;-60
2021/03/12 01:13:27;;;;;;;11.78;4.40;;;;;;;-2.75;59.16;99431.26;1669411;85;21099;-60
2021/03/12 01:15:54;;;;;;;23.42;5.67;;;;;;;-2.79;59.24;99436.73;1671822;85;21496;-60
2021/03/12 01:18:24;;;;;;;9.83;4.90;;;;;;;-2.84;59.48;99437.12;1671982;85;21354;-60
2021/03/12 01:20:53;;;;;;;10.05;4.55;;;;;;;-2.85;59.59;99439.23;1671787;85;21916;-60
2021/03/12 01:23:22;;;;;;;12.55;4.65;;;;;;;-2.90;59.71;99437.03;1671858;85;21166;-60
2021/03/12 01:25:50;;;;;;;24.82;5.70;;;;;;;-2.96;59.98;99439.08;1671851;85;21213;-60
2021/03/12 01:28:19;;;;;;;12.18;5.37;;;;;;;-3.02;60.20;99450.48;1671840;85;21091;-60
2021/03/12 01:30:49;;;;;;;17.00;5.12;;;;;;;-3.05;60.36;99445.34;1671862;85;21399;-60
2021/03/12 01:33:24;;;;;;;10.45;5.78;;;;;;;-3.05;60.49;99424.14;1671243;85;21190;-60
2021/03/12 01:35:53;;;;;;;10.55;5.72;;;;;;;-3.03;60.36;99432.65;1671833;85;21551;-60
2021/03/12 01:38:20;;;;;;;18.80;6.78;;;;;;;-3.03;60.44;99429.69;1670227;85;21214;-60
2021/03/12 01:40:49;;;;;;;11.75;5.75;;;;;;;-3.06;60.39;99423.28;1669687;86;21100;-60
2021/03/12 01:43:17;;;;;;;15.20;6.20;;;;;;;-3.09;60.44;99434.69;1669752;86;22336;-60
2021/03/12 01:45:48;;;;;;;9.60;5.92;;;;;;;-3.09;60.59;99435.11;1669622;86;21130;-61
2021/03/12 01:48:19;;;;;;;18.57;6.72;;;;;;;-3.10;60.77;99421.95;1667030;86;21107;-60
2021/03/12 01:50:58;;;;;;;43.50;7.67;;;;;;;-3.11;60.61;99426.18;1669689;86;21094;-60
2021/03/12 01:53:27;;;;;;;16.15;6.40;;;;;;;-3.10;60.71;99410.50;1668062;86;21087;-60
2021/03/12 01:55:56;;;;;;;17.92;5.97;;;;;;;-3.10;60.63;99410.50;1669614;86;21582;-60
2021/03/12 01:58:26;;;;;;;9.53;6.12;;;;;;;-3.10;60.88;99421.53;1669590;86;21119;-60
2021/03/12 02:00:55;;;;;;;8.10;5.25;;;;;;;-3.11;61.25;99419.82;1669529;86;21550;-60
2021/03/12 02:03:31;;;;;;;24.40;7.87;;;;;;;-3.10;61.17;99421.95;1669378;86;21107;-60
2021/03/12 02:06:11;;;;;;;14.93;5.72;;;;;;;-3.02;61.32;99430.54;1873685;76;22036;-60
2021/03/12 02:08:39;;;;;;;11.05;5.72;;;;;;;-3.09;61.18;99421.11;1841635;77;21057;-60
2021/03/12 02:11:10;;;;;;;121.95;12.53;;;;;;;-3.09;61.47;99409.66;1840273;78;21187;-60
2021/03/12 02:13:48;;;;;;;13.35;5.40;;;;;;;-3.10;61.44;99420.27;1841576;77;21901;-60
2021/03/12 02:16:22;;;;;;;12.15;6.03;;;;;;;-3.12;61.78;99422.78;1841624;78;21542;-61
2021/03/12 02:19:04;;;;;;;9.48;5.28;;;;;;;-3.14;61.78;99409.60;1841688;77;21514;-60
2021/03/12 02:21:54;;;;;;;11.45;5.60;;;;;;;-3.12;62.00;99404.97;1841637;77;21105;-60
2021/03/12 02:24:33;;;;;;;16.12;5.55;;;;;;;-3.08;61.83;99384.66;1841606;78;21125;-60
2021/03/12 02:27:11;;;;;;;10.05;5.50;;;;;;;-3.06;62.12;99369.00;1841527;78;20967;-60
2021/03/12 02:29:44;;;;;;;11.05;6.30;;;;;;;-3.12;62.10;99355.37;1841010;78;21053;-60
2021/03/12 02:32:16;;;;;;;13.78;5.05;;;;;;;-3.11;62.23;99344.77;1841528;77;21112;-60
2021/03/12 02:34:47;;;;;;;9.20;5.60;;;;;;;-3.10;62.32;99337.58;1841596;78;21140;-60
2021/03/12 02:37:18;;;;;;;9.43;5.50;;;;;;;-3.10;62.31;99334.18;1841298;78;21374;-60
2021/03/12 02:39:51;;;;;;;13.85;5.05;;;;;;;-3.10;62.37;99318.50;1811981;78;21117;-60
2021/03/12 02:42:20;;;;;;;8.13;4.92;;;;;;;-3.14;62.37;99316.75;1811599;78;21054;-60
2021/03/12 02:44:50;;;;;;;18.87;6.28;;;;;;;-3.17;62.51;99306.13;1841598;77;21057;-60
2021/03/12 02:47:23;;;;;;;16.50;5.83;;;;;;;-3.15;62.60;99306.14;1811239;78;21041;-60
2021/03/12 02:49:51;;;;;;;8.25;5.65;;;;;;;-3.15;62.55;99301.05;1812692;78;22240;-60
2021/03/12 02:52:19;;;;;;;26.82;5.97;;;;;;;-3.16;62.69;99300.62;1841442;78;21062;-60
2021/03/12 02:54:48;;;;;;;8.23;5.20;;;;;;;-3.19;62.72;99297.63;1841546;78;21049;-60
2021/03/12 02:57:21;;;;;;;8.25;4.83;;;;;;;-3.24;62.87;99286.98;1836941;78;21038;-60
2021/03/12 02:59:51;;;;;;;;;;;;;;;-3.26;62.99;99310.27;1785413;79;21474;-60
2021/03/12 03:02:30;;;;;;;8.70;4.50;;;;;;;-3.30;62.89;99290.31;1721344;82;21385;-60
2021/03/12 03:05:00;;;;;;;14.47;5.65;;;;;;;-3.30;63.09;99293.27;1805384;78;21081;-60
2021/03/12 03:07:36;;;;;;;10.15;5.45;;;;;;;-3.33;63.26;99285.19;1808231;79;21117;-60
2021/03/12 03:10:09;;;;;;;12.90;6.03;;;;;;;-3.36;63.30;99279.20;1808579;79;21120;-60
2021/03/12 03:12:38;;;;;;;11.12;5.70;;;;;;;-3.37;63.44;99271.99;1808491;79;21066;-60
2021/03/12 03:15:07;;;;;;;28.12;6.17;;;;;;;-3.38;63.59;99274.10;1808485;79;23450;-60
2021/03/12 03:17:37;;;;;;;8.70;5.00;;;;;;;-3.40;63.68;99254.19;1778519;79;21116;-60
2021/03/12 03:20:10;;;;;;;10.10;5.47;;;;;;;-3.39;63.84;99274.08;1808142;79;21117;-60
2021/03/12 03:22:39;;;;;;;10.88;5.25;;;;;;;-3.37;63.89;99274.95;1808066;78;21054;-60
2021/03/12 03:25:10;;;;;;;9.48;5.25;;;;;;;-3.33;64.04;99274.16;1807903;79;21041;-60
2021/03/12 03:27:38;;;;;;;11.03;5.87;;;;;;;-3.34;64.10;99273.72;1808037;79;22243;-60
2021/03/12 03:30:13;;;;;;;13.58;5.50;;;;;;;-3.35;64.21;99267.78;1778678;79;21564;-60
2021/03/12 03:32:43;;;;;;;8.05;5.15;;;;;;;-3.37;64.37;99273.27;1807603;78;21172;-60
2021/03/12 03:35:12;;;;;;;7.95;5.05;;;;;;;-3.35;64.45;99254.21;1807875;79;21494;-60
2021/03/12 03:37:41;;;;;;;8.15;5.83;;;;;;;-3.34;64.55;99241.52;1807888;79;21065;-60
2021/03/12 03:40:11;;;;;;;9.38;5.15;;;;;;;-3.34;64.78;99250.41;1807934;79;21399;-59
2021/03/12 03:42:44;;;;;;;10.18;5.08;;;;;;;-3.34;64.87;99255.92;1807944;79;21089;-59
2021/03/12 03:45:14;;;;;;;12.60;5.05;;;;;;;-3.37;65.02;99228.77;1762220;79;21064;-59
2021/03/12 03:47:43;;;;;;;9.03;5.40;;;;;;;-3.38;65.04;99224.93;1806978;78;21175;-59
2021/03/12 03:50:12;;;;;;;21.35;7.85;;;;;;;-3.41;65.19;99220.70;1807864;79;21460;-59
2021/03/12 03:52:40;;;;;;;9.90;4.87;;;;;;;-3.40;65.26;99232.99;1807912;79;21356;-59
2021/03/12 03:55:11;;;;;;;8.70;5.03;;;;;;;-3.37;65.22;99240.20;1808005;79;20899;-59
2021/03/12 03:57:39;;;;;;;9.30;4.70;;;;;;;-3.36;65.43;99232.16;1778630;79;21065;-59
2021/03/12 04:00:10;;;;;;;13.90;5.70;;;;;;;-3.34;65.54;99245.75;1807883;79;21050;-60
2021/03/12 04:02:46;;;;;;;12.13;5.35;;;;;;;-3.30;65.50;99235.62;1807632;79;21138;-61
2021/03/12 04:05:16;;;;;;;11.73;5.42;;;;;;;-3.24;65.39;99220.44;1809837;79;22167;-59
2021/03/12 04:07:46;;;;;;;43.78;7.45;;;;;;;-3.21;65.12;99207.76;1785467;79;21152;-60
2021/03/12 04:10:15;;;;;;;16.67;6.30;;;;;;;-3.24;65.17;99216.63;1813554;79;21613;-60
2021/03/12 04:12:43;;;;;;;23.27;5.25;;;;;;;-3.27;65.31;99226.77;1813573;78;21640;-60
2021/03/12 04:15:13;;;;;;;12.03;6.20;;;;;;;-3.30;65.17;99238.17;1813667;79;21447;-60
2021/03/12 04:17:41;;;;;;;16.80;5.70;;;;;;;-3.33;65.47;99256.36;1786481;79;21358;-60
2021/03/12 04:20:12;;;;;;;7.62;5.25;;;;;;;-3.35;65.53;99251.67;1813493;78;21069;-60
2021/03/12 04:22:39;;;;;;;26.42;6.37;;;;;;;-3.36;65.60;99263.53;1786937;79;21489;-59
2021/03/12 04:25:08;;;;;;;14.73;5.12;;;;;;;-3.36;65.75;99248.69;1813541;79;21053;-59
2021/03/12 04:27:38;;;;;;;10.88;5.65;;;;;;;-3.33;65.65;99258.48;1786532;79;21108;-59
2021/03/12 04:30:08;;;;;;;17.62;6.03;;;;;;;-3.33;65.74;99255.08;1813585;79;22823;-59
2021/03/12 04:32:38;;;;;;;29.72;6.28;;;;;;;-3.33;65.89;99239.41;1813513;78;21085;-59
2021/03/12 04:35:09;;;;;;;37.05;6.83;;;;;;;-3.31;65.87;99228.84;1813573;78;21065;-59
2021/03/12 04:37:37;;;;;;;12.25;5.87;;;;;;;-3.31;65.78;99221.63;1786531;79;21144;-59
2021/03/12 04:40:08;;;;;;;7.62;5.45;;;;;;;-3.32;65.98;99213.14;1813593;79;21537;-59
2021/03/12 04:42:37;;;;;;;9.15;5.45;;;;;;;-3.31;66.07;99191.96;1813581;79;21403;-59
2021/03/12 04:45:07;;;;;;;14.73;5.85;;;;;;;-3.29;66.18;99197.06;1813458;79;21152;-59
2021/03/12 04:47:37;;;;;;;8.85;5.28;;;;;;;-3.28;66.09;99188.59;1813352;79;21148;-59
2021/03/12 04:50:08;;;;;;;26.33;6.12;;;;;;;-3.25;66.18;99174.64;1813519;79;21140;-59
2021/03/12 04:52:37;;;;;;;16.37;5.67;;;;;;;-3.22;66.25;99183.58;1813635;79;21553;-60
2021/03/12 04:55:08;;;;;;;9.60;4.90;;;;;;;-3.20;66.20;99180.63;1786428;79;21176;-60
2021/03/12 04:57:36;;;;;;;13.88;4.87;;;;;;;-3.17;66.24;99190.80;1785972;79;21136;-59
2021/03/12 05:00:07;;;;;;;12.82;5.50;;;;;;;-3.17;66.15;99193.34;1813491;77;21116;-59
2021/03/12 05:02:37;;;;;;;30.45;6.40;;;;;;;-3.13;66.20;99193.39;1812945;79;21125;-59
2021/03/12 05:05:10;;;;;;;17.48;5.87;;;;;;;-3.09;66.03;99202.33;1812492;79;21215;-59
2021/03/12 05:07:39;;;;;;;9.28;5.28;;;;;;;-3.07;65.96;99202.78;1807862;79;21253;-59
2021/03/12 05:10:11;;;;;;;11.68;4.70;;;;;;;-3.04;65.85;99201.95;1806673;79;21097;-59
2021/03/12 05:12:38;;;;;;;17.65;5.20;;;;;;;-3.05;65.50;99188.38;1778647;79;21474;-59
2021/03/12 05:15:10;;;;;;;17.60;5.97;;;;;;;-3.06;65.64;99181.59;1803900;79;21067;-59
2021/03/12 05:17:37;;;;;;;14.05;5.87;;;;;;;-3.04;65.63;99193.05;1807911;78;21049;-60
2021/03/12 05:20:08;;;;;;;26.80;6.30;;;;;;;-3.03;65.71;99185.44;1807939;79;22310;-59
2021/03/12 05:22:36;;;;;;;11.78;5.95;;;;;;;-3.03;65.57;99198.58;1807762;79;21132;-60
2021/03/12 05:25:06;;;;;;;11.88;5.90;;;;;;;-3.03;65.65;99192.22;1807730;79;21569;-59
2021/03/12 05:27:33;;;;;;;30.02;6.58;;;;;;;-3.00;65.82;99192.25;1778661;79;21152;-59
2021/03/12 05:30:04;;;;;;;16.15;5.30;;;;;;;-2.99;65.90;99219.36;1807835;79;21097;-59
2021/03/12 05:32:31;;;;;;;15.68;5.55;;;;;;;-2.95;65.70;99244.86;1807801;78;22189;-60
2021/03/12 05:35:00;;;;;;;14.25;5.47;;;;;;;-2.93;65.74;99248.27;1807723;78;21073;-60
2021/03/12 05:37:31;;;;;;;14.83;4.55;;;;;;;-2.89;65.54;99236.43;1807801;79;21050;-60
2021/03/12 05:39:59;;;;;;;15.63;6.25;;;;;;;-2.86;65.59;99243.67;1778619;79;21061;-60
2021/03/12 05:42:27;;;;;;;27.90;6.50;;;;;;;-2.82;65.54;99226.75;1807809;79;21045;-60
2021/03/12 05:44:57;;;;;;;45.73;7.72;;;;;;;-2.80;65.65;99227.16;1778810;78;21181;-60
2021/03/12 05:47:26;;;;;;;26.82;7.90;;;;;;;-2.77;65.61;99244.16;1752600;79;21124;-60
2021/03/12 05:49:55;;;;;;;31.87;6.58;;;;;;;-2.71;65.73;99249.73;1778653;79;21117;-59
2021/03/12 05:52:23;;;;;;;12.18;6.30;;;;;;;-2.65;65.55;99237.91;1807779;79;21168;-59
2021/03/12 05:54:51;;;;;;;20.17;6.35;;;;;;;-2.63;65.26;99245.14;1807652;79;21065;-60
2021/03/12 05:57:20;;;;;;;37.40;7.83;;;;;;;-2.62;65.31;99250.66;1807752;79;21427;-60
2021/03/12 05:59:48;;;;;;;27.60;6.55;;;;;;;-2.58;65.44;99249.82;1778422;79;21085;-60
2021/03/12 06:02:17;;;;;;;16.23;6.28;;;;;;;-2.52;65.42;99251.15;1800531;78;21565;-60
2021/03/12 06:04:45;;;;;;;40.05;6.17;;;;;;;-2.51;65.25;99236.72;1749170;79;21120;-60
2021/03/12 06:07:13;;;;;;;19.65;7.03;;;;;;;-2.48;65.36;99245.24;1774843;80;21172;-60
2021/03/12 06:09:43;;;;;;;31.15;6.97;;;;;;;-2.45;65.46;99233.81;1747497;80;21158;-59
2021/03/12 06:12:12;;;;;;;33.53;6.90;;;;;;;-2.40;65.10;99230.45;1775795;80;21089;-59
2021/03/12 06:14:52;;;;;;;15.72;6.30;;;;;;;-2.37;65.01;99226.20;1775854;80;21065;-60
2021/03/12 06:17:46;;;;;;;12.05;5.50;;;;;;;-2.29;65.07;99227.11;1873568;76;22575;-60
2021/03/12 06:20:18;;;;;;;29.25;7.47;;;;;;;-2.32;65.04;99239.82;1841236;77;21592;-60
2021/03/12 06:22:51;;;;;;;73.07;12.47;;;;;;;-2.31;65.02;99233.03;1841515;77;21359;-60
2021/03/12 06:25:23;;;;;;;20.15;6.00;;;;;;;-2.28;65.06;99234.33;1841510;78;21562;-60
2021/03/12 06:28:19;;;;;;;45.60;8.98;;;;;;;-2.26;65.13;99236.05;1840862;78;20998;-60
2021/03/12 06:31:26;;;;;;;37.98;8.13;;;;;;;-2.17;65.21;99241.60;1841663;78;21566;-60
2021/03/12 06:34:09;;;;;;;18.52;5.85;;;;;;;-2.10;64.82;99226.37;1778390;78;22144;-60
2021/03/12 06:36:55;;;;;;;25.10;6.87;;;;;;;-2.02;64.42;99210.27;1841404;77;21478;-62
2021/03/12 06:39:35;;;;;;;28.85;7.05;;;;;;;-1.98;64.25;99212.82;1840265;78;21168;-61
2021/03/12 06:42:11;;;;;;;46.65;8.15;;;;;;;-1.91;64.24;99227.73;1839007;78;21166;-60
2021/03/12 06:44:41;;;;;;;22.42;8.53;;;;;;;-1.85;63.89;99205.67;1840160;77;21140;-60
2021/03/12 06:47:10;;;;;;;114.15;14.18;;;;;;;-1.81;63.90;99223.11;1840740;77;21117;-60
2021/03/12 06:49:55;;;;;;;52.00;8.75;;;;;;;-1.79;63.68;99232.86;1840574;77;22360;-61
2021/03/12 06:52:35;;;;;;;22.25;6.03;;;;;;;-1.76;63.81;99243.08;1839209;78;21053;-60
2021/03/12 06:55:07;;;;;;;34.38;7.00;;;;;;;-1.76;63.41;99252.00;1840838;77;21046;-60
2021/03/12 06:57:42;;;;;;;18.60;5.78;;;;;;;-1.79;63.66;99255.81;1818790;78;21091;-61
2021/03/12 07:00:25;;;;;;;19.52;5.95;;;;;;;-1.76;63.32;99246.48;1786351;80;21436;-61
2021/03/12 07:02:53;;;;;;;;;;;;;;;-1.73;63.52;99246.92;1787941;80;21376;-62
2021/03/12 07:05:33;;;;;;;27.00;7.47;;;;;;;-1.67;63.41;99241.00;1785416;80;20238;-60
2021/03/12 07:08:04;;;;;;;28.12;7.78;;;;;;;-1.65;63.46;99225.29;1735542;80;21078;-60
2021/03/12 07:10:34;;;;;;;13.35;6.30;;;;;;;-1.63;63.41;99215.95;1779108;80;21603;-62
2021/03/12 07:13:12;;;;;;;27.45;7.65;;;;;;;-1.64;63.20;99206.17;1777555;80;21193;-64
2021/03/12 07:15:42;;;;;;;10.45;5.95;;;;;;;-1.63;63.32;99191.30;1782005;80;21173;-62
2021/03/12 07:18:19;;;;;;;31.45;6.67;;;;;;;-1.62;63.26;99186.63;1751357;82;21115;-61
2021/03/12 07:20:49;;;;;;;43.23;7.83;;;;;;;-1.62;63.40;99171.33;1713478;82;21115;-60
2021/03/12 07:23:20;;;;;;;11.63;5.80;;;;;;;-1.61;63.64;99145.41;1732953;82;21225;-60
2021/03/12 07:25:49;;;;;;;14.80;5.30;;;;;;;-1.61;63.75;99137.34;1730950;82;21146;-60
2021/03/12 07:28:16;;;;;;;16.90;5.95;;;;;;;-1.57;63.85;99132.64;1730516;82;22349;-60
2021/03/12 07:30:50;;;;;;;21.62;6.78;;;;;;;-1.54;63.45;99102.05;1694125;84;21133;-62
2021/03/12 07:33:22;;;;;;;24.67;6.62;;;;;;;-1.53;63.58;99109.28;1674105;84;21270;-61
2021/03/12 07:35:54;;;;;;;22.70;6.97;;;;;;;-1.50;63.55;99099.93;1674440;84;21122;-61
2021/03/12 07:38:40;;;;;;;45.75;7.92;;;;;;;-1.46;63.74;99094.42;1697651;84;21194;-60
2021/03/12 07:41:09;;;;;;;16.80;5.92;;;;;;;-1.35;63.60;99094.41;1689359;84;21379;-60
2021/03/12 07:43:55;;;;;;;24.90;5.95;;;;;;;-1.31;63.47;99108.44;1730088;82;21090;-60
2021/03/12 07:46:39;;;;;;;67.82;8.80;;;;;;;-1.23;63.27;99099.10;1884632;75;22684;-61
2021/03/12 07:49:33;;;;;;;25.43;6.62;;;;;;;-1.27;63.51;99087.19;1855156;77;21223;-63
2021/03/12 07:52:47;;;;;;;38.48;7.03;;;;;;;-1.25;63.47;99081.66;1872898;76;22690;-62
2021/03/12 07:55:39;;;;;;;16.40;7.40;;;;;;;-1.27;63.08;99083.78;1811198;78;21073;-61
2021/03/12 07:58:12;;;;;;;23.38;6.92;;;;;;;-1.27;63.50;99080.81;1805344;78;22373;-60
2021/03/12 08:01:02;;;;;;;15.08;7.10;;;;;;;-1.29;63.61;99059.97;1806098;79;20946;-60
2021/03/12 08:03:40;;;;;;;22.45;7.47;;;;;;;-1.31;63.54;99055.30;1807914;78;21194;-60
2021/03/12 08:06:25;;;;;;;31.65;6.65;;;;;;;-1.28;63.78;99061.25;1807010;79;21061;-60
2021/03/12 08:09:32;;;;;;;29.07;7.65;;;;;;;-1.24;63.92;99045.09;1808483;79;21119;-62
2021/03/12 08:12:37;;;;;;;15.68;6.55;;;;;;;-1.23;64.11;99049.34;1808463;79;21557;-60
2021/03/12 08:51:14;;;;;;;18.23;6.50;;;;;;;-0.83;65.10;98982.89;1848496;77;26383;-65
2021/03/12 10:21:48;;;;;;;11.68;7.17;;;;;;;-0.58;77.67;98963.18;1837585;77;27008;-60
2021/03/12 10:24:17;;;;;;;14.65;7.50;;;;;;;-0.57;77.82;98954.23;1791118;79;21673;-60
2021/03/12 10:26:45;;;;;;;13.83;7.65;;;;;;;-0.53;78.07;98945.70;1795835;78;21623;-60
2021/03/12 10:29:12;;;;;;;18.42;9.68;;;;;;;-0.45;78.61;98965.69;1696313;81;21277;-61
2021/03/12 10:31:40;;;;;;;12.50;6.97;;;;;;;-0.32;78.50;98954.11;1681147;83;21161;-61
2021/03/12 10:34:08;;;;;;;11.85;7.67;;;;;;;-0.22;78.36;98963.00;1716393;82;21132;-60
2021/03/12 10:36:36;;;;;;;15.05;8.35;;;;;;;-0.15;78.15;98965.91;1737166;81;21203;-60
2021/03/12 10:39:05;;;;;;;15.20;7.10;;;;;;;-0.14;78.15;98955.26;1717664;81;21286;-61
2021/03/12 10:41:33;;;;;;;11.90;6.95;;;;;;;-0.10;78.09;98960.34;1786654;79;21649;-61
2021/03/12 10:44:05;;;;;;;14.03;7.35;;;;;;;-0.06;78.23;98957.34;1796044;79;21071;-60
2021/03/12 10:46:34;;;;;;;11.20;6.92;;;;;;;-0.02;78.41;98953.48;1787183;79;21156;-60
2021/03/12 10:49:02;;;;;;;13.55;6.28;;;;;;;0.07;78.43;98957.66;1735904;82;21646;-61
2021/03/12 10:51:39;;;;;;;9.65;6.05;;;;;;;0.14;78.39;98955.92;1791801;79;21263;-61
2021/03/12 10:54:12;;;;;;;16.73;7.87;;;;;;;0.20;78.33;98958.44;1801923;79;21205;-60
2021/03/12 10:56:46;;;;;;;11.35;6.42;;;;;;;0.22;78.25;98952.84;1741429;81;21558;-60
2021/03/12 10:59:14;;;;;;;11.78;7.20;;;;;;;0.24;78.41;98957.52;1797376;78;21168;-59
2021/03/12 11:01:45;;;;;;;9.70;6.58;;;;;;;0.24;78.69;98959.66;1802587;79;21191;-59
2021/03/12 11:04:13;;;;;;;10.08;7.40;;;;;;;0.24;78.92;98960.93;1725126;82;21154;-59
2021/03/12 11:06:42;;;;;;;10.28;6.95;;;;;;;0.27;79.28;98963.47;1756051;80;21067;-60
2021/03/12 11:09:13;;;;;;;9.63;6.65;;;;;;;0.27;79.41;98960.91;1717373;82;21214;-61
2021/03/12 11:11:44;;;;;;;11.08;7.10;;;;;;;0.27;79.67;98963.90;1782460;79;21123;-60
2021/03/12 11:14:11;;;;;;;9.90;6.58;;;;;;;0.27;79.79;98961.34;1796052;79;21167;-61
2021/03/12 11:16:39;;;;;;;14.38;6.65;;;;;;;0.27;80.09;98950.68;1784692;79;21426;-60
2021/03/12 11:19:08;;;;;;;11.15;6.40;;;;;;;0.32;80.50;98943.83;1769268;80;21206;-59
2021/03/12 11:21:37;;;;;;;9.73;6.28;;;;;;;0.39;80.43;98947.61;1773008;80;21110;-60
2021/03/12 11:24:06;;;;;;;16.60;8.03;;;;;;;0.40;80.59;98939.08;1767130;80;21614;-60
2021/03/12 11:26:34;;;;;;;9.88;5.42;;;;;;;0.41;80.81;98927.52;1685907;83;21195;-60
2021/03/12 11:29:01;;;;;;;9.23;5.33;;;;;;;0.46;80.78;98919.38;1728334;82;21218;-60
2021/03/12 11:31:29;;;;;;;8.93;4.33;;;;;;;0.48;81.15;98924.48;1726723;82;21615;-60
2021/03/12 11:33:57;;;;;;;6.55;3.90;;;;;;;0.52;81.17;98920.61;1689994;83;21153;-61
2021/03/12 11:36:25;;;;;;;4.67;3.90;;;;;;;0.56;81.38;98921.44;1754801;80;21149;-59
2021/03/12 11:38:53;;;;;;;7.28;3.47;;;;;;;0.57;81.20;98908.63;1774311;80;21173;-58
2021/03/12 11:41:21;;;;;;;11.38;6.42;;;;;;;0.59;81.41;98914.58;1702564;83;22124;-61
2021/03/12 11:43:53;;;;;;;8.33;4.43;;;;;;;0.62;81.60;98908.12;1747371;80;21208;-60
2021/03/12 11:46:21;;;;;;;4.50;3.95;;;;;;;0.63;81.68;98907.26;1756684;80;21064;-60
2021/03/12 11:48:50;;;;;;;6.35;4.62;;;;;;;0.69;81.88;98897.40;1697053;83;21326;-62
2021/03/12 11:51:18;;;;;;;6.40;4.00;;;;;;;0.77;81.83;98893.05;1711214;83;21183;-60
2021/03/12 11:53:46;;;;;;;8.53;4.22;;;;;;;0.84;81.47;98887.41;1728801;81;21461;-60
2021/03/12 11:56:13;;;;;;;6.00;3.77;;;;;;;0.88;81.50;98889.07;1698265;83;21183;-60
2021/03/12 11:58:43;;;;;;;6.35;4.30;;;;;;;0.93;81.42;98879.20;1712119;82;21190;-59
2021/03/12 12:01:11;;;;;;;7.97;4.20;;;;;;;1.00;81.32;98873.11;1752634;80;21080;-60
2021/03/12 12:03:42;;;;;;;6.40;3.85;;;;;;;1.08;81.20;98868.34;1681523;83;21096;-60
2021/03/12 12:06:10;;;;;;;8.43;4.47;;;;;;;1.12;81.23;98873.84;1695436;83;21222;-59
2021/03/12 12:08:37;;;;;;;5.12;3.87;;;;;;;1.14;80.49;98877.23;1746664;80;21095;-60
2021/03/12 12:11:07;;;;;;;8.08;4.30;;;;;;;1.10;80.53;98870.45;1757068;80;21578;-61
2021/03/12 12:13:34;;;;;;;5.58;4.15;;;;;;;1.04;80.52;98861.12;1770722;80;21553;-60
2021/03/12 12:16:02;;;;;;;8.40;4.22;;;;;;;1.03;80.74;98861.55;1679193;83;22186;-60
2021/03/12 12:18:30;;;;;;;6.58;3.87;;;;;;;1.07;80.63;98854.69;1710367;83;21262;-60
2021/03/12 12:20:58;;;;;;;7.00;4.15;;;;;;;1.09;80.68;98852.95;1724502;82;21215;-61
2021/03/12 12:23:25;;;;;;;5.83;3.92;;;;;;;1.14;80.81;98847.34;1686122;83;21115;-60
2021/03/12 12:25:53;;;;;;;6.67;4.90;;;;;;;1.19;80.74;98841.73;1741193;81;21634;-60
2021/03/12 12:28:21;;;;;;;9.25;4.65;;;;;;;1.24;80.54;98841.21;1739587;81;21124;-59
2021/03/12 12:30:49;;;;;;;4.58;3.37;;;;;;;1.25;80.49;98824.98;1741042;81;21355;-59
2021/03/12 12:33:16;;;;;;;5.37;3.47;;;;;;;1.25;80.31;98841.63;1740405;81;21603;-60
2021/03/12 12:35:44;;;;;;;6.15;3.47;;;;;;;1.23;80.50;98838.67;1741168;81;21684;-59
2021/03/12 12:38:12;;;;;;;8.60;4.17;;;;;;;1.22;80.84;98828.86;1740971;81;21252;-59
2021/03/12 12:40:41;;;;;;;5.83;3.50;;;;;;;1.26;80.81;98825.39;1742194;81;21058;-59
2021/03/12 12:43:08;;;;;;;7.10;3.40;;;;;;;1.33;80.91;98826.16;1740821;81;21386;-59
2021/03/12 12:45:36;;;;;;;5.83;3.30;;;;;;;1.37;80.53;98832.50;1739190;81;21210;-60
2021/03/12 12:48:07;;;;;;;3.75;3.08;;;;;;;1.41;80.54;98820.47;1741991;81;21738;-59
2021/03/12 12:50:35;;;;;;;5.40;3.37;;;;;;;1.41;79.97;98834.56;1740423;81;21214;-60
2021/03/12 12:53:03;;;;;;;6.03;3.67;;;;;;;1.35;80.05;98831.67;1737530;81;21052;-59
2021/03/12 12:55:31;;;;;;;6.25;3.77;;;;;;;1.34;80.09;98833.83;1697418;83;21171;-60
2021/03/12 12:57:58;;;;;;;4.95;3.62;;;;;;;1.34;80.07;98824.02;1685615;83;21120;-59
2021/03/12 13:00:27;;;;;;;4.60;2.50;;;;;;;1.29;80.00;98824.50;1741582;80;21539;-59
2021/03/12 13:02:54;;;;;;;4.95;2.70;;;;;;;1.25;80.36;98818.57;1738339;82;21123;-60
2021/03/12 13:05:22;;;;;;;5.28;3.08;;;;;;;1.30;80.65;98814.23;1741966;82;21151;-60
2021/03/12 13:07:51;;;;;;;4.37;3.08;;;;;;;1.33;80.45;98821.88;1745665;81;21210;-59
2021/03/12 13:10:18;;;;;;;5.35;3.67;;;;;;;1.30;80.17;98815.52;1742020;81;21524;-60
2021/03/12 13:12:46;;;;;;;4.05;2.90;;;;;;;1.23;80.63;98804.94;1742639;82;21166;-58
2021/03/12 13:15:14;;;;;;;6.30;3.42;;;;;;;1.21;80.84;98811.80;1742302;80;21140;-59
2021/03/12 13:17:41;;;;;;;4.17;2.62;;;;;;;1.22;80.87;98810.08;1701112;83;21089;-60
2021/03/12 13:20:12;;;;;;;5.97;2.92;;;;;;;1.24;80.97;98805.78;1648378;85;21225;-59
2021/03/12 13:22:41;;;;;;;4.05;3.22;;;;;;;1.22;80.51;98810.92;1661110;84;21100;-60
2021/03/12 13:25:12;;;;;;;4.30;2.62;;;;;;;1.19;80.65;98808.44;1686076;84;21064;-58
2021/03/12 13:27:43;;;;;;;4.03;2.83;;;;;;;1.21;80.70;98801.98;1750889;80;21160;-59
2021/03/12 13:30:17;;;;;;;4.00;2.77;;;;;;;1.22;80.77;98804.52;1762697;80;21055;-59
2021/03/12 13:32:45;;;;;;;4.65;3.45;;;;;;;1.25;80.84;98805.77;1729180;81;21367;-58
2021/03/12 13:35:14;;;;;;;7.87;4.25;;;;;;;1.28;80.81;98799.32;1720128;82;21087;-59
2021/03/12 13:37:42;;;;;;;5.45;2.67;;;;;;;1.29;80.53;98795.05;1730173;82;21500;-60
2021/03/12 13:40:14;;;;;;;4.53;3.00;;;;;;;1.30;80.59;98797.58;1739278;81;21135;-59
2021/03/12 13:42:41;;;;;;;4.28;2.77;;;;;;;1.34;80.46;98799.67;1728253;81;21065;-58
2021/03/12 13:45:11;;;;;;;4.28;3.10;;;;;;;1.35;80.08;98800.94;1723321;82;21389;-58
2021/03/12 13:47:40;;;;;;;5.95;3.15;;;;;;;1.30;79.90;98789.90;1727762;82;21220;-60
2021/03/12 13:50:11;;;;;;;6.28;4.37;;;;;;;1.21;79.43;98798.98;1738617;80;21164;-59
2021/03/12 13:52:39;;;;;;;5.12;3.40;;;;;;;1.14;79.67;98800.40;1754431;80;21119;-59
2021/03/12 13:55:08;;;;;;;5.33;3.90;;;;;;;1.11;78.87;98785.08;1736231;80;21123;-60